createdAt,value
2023-03-01T00:01:03.006Z,17.30
2023-03-01T00:03:30.757Z,21.20
2023-03-01T00:05:59.997Z,18.00
2023-03-01T00:08:28.249Z,19.43
2023-03-01T00:11:03.854Z,19.90
2023-03-01T00:13:31.698Z,21.57
2023-03-01T00:15:59.550Z,18.40
2023-03-01T00:18:27.274Z,20.67
2023-03-01T00:20:56.406Z,21.00
2023-03-01T00:23:26.141Z,16.70
2023-03-01T00:25:54.569Z,21.73
2023-03-01T00:28:22.603Z,22.03
2023-03-01T00:30:50.447Z,16.33
2023-03-01T00:33:18.719Z,15.33
2023-03-01T00:35:46.631Z,19.13
2023-03-01T00:38:14.370Z,17.87
2023-03-01T00:40:43.414Z,19.50
2023-03-01T00:43:11.132Z,21.80
2023-03-01T00:45:38.864Z,16.80
2023-03-01T00:48:07.462Z,18.43
2023-03-01T00:50:35.180Z,16.30
2023-03-01T00:53:02.915Z,14.33
2023-03-01T00:55:30.893Z,17.80
2023-03-01T00:57:59.941Z,17.67
2023-03-01T01:00:28.727Z,16.83
2023-03-01T01:02:56.492Z,20.43
2023-03-01T01:05:24.218Z,16.47
2023-03-01T01:07:51.945Z,15.33
2023-03-01T01:10:19.880Z,14.83
2023-03-01T01:12:47.839Z,17.80
2023-03-01T01:15:17.512Z,17.67
2023-03-01T01:17:45.624Z,17.80
2023-03-01T01:20:13.856Z,16.20
2023-03-01T01:22:41.554Z,15.10
2023-03-01T01:25:10.291Z,17.17
2023-03-01T01:27:38.134Z,16.83
2023-03-01T01:30:07.265Z,13.97
2023-03-01T01:32:36.304Z,15.57
2023-03-01T01:35:04.185Z,16.73
2023-03-01T01:37:32.937Z,15.90
2023-03-01T01:40:01.083Z,17.30
2023-03-01T01:42:29.454Z,15.17
2023-03-01T01:45:27.716Z,14.93
2023-03-01T01:47:59.223Z,17.40
2023-03-01T01:50:28.072Z,14.50
2023-03-01T01:52:56.682Z,15.57
2023-03-01T01:55:29.012Z,14.50
2023-03-01T01:58:00.462Z,15.77
2023-03-01T02:00:30.625Z,18.58
2023-03-01T02:03:03.576Z,13.83
2023-03-01T02:05:38.416Z,16.63
2023-03-01T02:08:06.810Z,15.10
2023-03-01T02:10:36.507Z,14.90
2023-03-01T02:13:05.193Z,12.10
2023-03-01T02:15:34.677Z,15.83
2023-03-01T02:18:05.532Z,15.13
2023-03-01T02:20:39.346Z,15.83
2023-03-01T02:23:07.659Z,17.00
2023-03-01T02:25:44.032Z,14.60
2023-03-01T02:28:24.505Z,14.20
2023-03-01T02:31:24.838Z,15.00
2023-03-01T02:33:53.590Z,13.20
2023-03-01T02:36:23.530Z,13.57
2023-03-01T02:38:54.208Z,14.80
2023-03-01T02:41:23.003Z,15.80
2023-03-01T02:43:52.281Z,13.50
2023-03-01T02:46:23.037Z,13.23
2023-03-01T02:48:52.861Z,14.87
2023-03-01T02:51:43.650Z,13.00
2023-03-01T02:54:22.178Z,15.57
2023-03-01T02:56:50.480Z,13.10
2023-03-01T02:59:22.957Z,17.30
2023-03-01T03:01:50.711Z,13.23
2023-03-01T03:04:21.853Z,15.60
2023-03-01T03:06:51.254Z,14.60
2023-03-01T03:09:19.880Z,18.37
2023-03-01T03:11:48.013Z,14.20
2023-03-01T03:14:17.395Z,13.60
2023-03-01T03:16:48.567Z,12.23
2023-03-01T03:19:17.540Z,17.00
2023-03-01T03:21:45.532Z,15.87
2023-03-01T03:24:13.229Z,12.37
2023-03-01T03:26:40.914Z,12.07
2023-03-01T03:29:08.681Z,12.20
2023-03-01T03:31:36.590Z,12.20
2023-03-01T03:34:05.684Z,12.70
2023-03-01T03:36:34.423Z,12.07
2023-03-01T03:39:02.134Z,13.97
2023-03-01T03:41:29.827Z,14.10
2023-03-01T03:43:57.549Z,13.73
2023-03-01T03:46:25.332Z,12.23
2023-03-01T03:48:53.065Z,14.60
2023-03-01T03:51:23.665Z,15.90
2023-03-01T03:53:51.441Z,12.17
2023-03-01T03:56:19.189Z,14.10
2023-03-01T03:58:46.916Z,12.67
2023-03-01T04:01:14.664Z,12.60
2023-03-01T04:03:42.683Z,13.17
2023-03-01T04:06:10.389Z,18.07
2023-03-01T04:08:39.424Z,14.13
2023-03-01T04:11:21.578Z,12.63
2023-03-01T04:13:49.645Z,10.83
2023-03-01T04:16:18.606Z,13.07
2023-03-01T04:18:46.658Z,13.60
2023-03-01T04:21:14.435Z,11.80
2023-03-01T04:23:43.902Z,12.03
2023-03-01T04:26:11.744Z,14.93
2023-03-01T04:28:44.024Z,13.97
2023-03-01T04:31:18.331Z,14.60
2023-03-01T04:33:48.916Z,15.90
2023-03-01T04:36:18.522Z,12.90
2023-03-01T04:38:49.113Z,14.20
2023-03-01T04:41:18.836Z,12.07
2023-03-01T04:43:46.638Z,12.50
2023-03-01T04:46:16.749Z,13.03
2023-03-01T04:48:46.050Z,11.53
2023-03-01T04:51:14.856Z,13.80
2023-03-01T04:53:43.914Z,16.17
2023-03-01T04:56:16.863Z,13.60
2023-03-01T04:58:44.904Z,9.60
2023-03-01T05:01:16.988Z,12.90
2023-03-01T05:03:45.504Z,8.67
2023-03-01T05:06:13.850Z,12.10
2023-03-01T05:08:42.410Z,13.90
2023-03-01T05:11:10.903Z,12.60
2023-03-01T05:13:41.278Z,14.73
2023-03-01T05:16:12.299Z,13.63
2023-03-01T05:18:41.621Z,12.23
2023-03-01T05:21:11.999Z,12.13
2023-03-01T05:23:40.428Z,13.90
2023-03-01T05:26:16.068Z,12.70
2023-03-01T05:28:59.391Z,13.10
2023-03-01T05:31:27.238Z,13.40
2023-03-01T05:33:55.033Z,16.70
2023-03-01T05:36:22.854Z,12.23
2023-03-01T05:38:50.578Z,11.17
2023-03-01T05:41:18.822Z,11.83
2023-03-01T05:43:46.739Z,17.20
2023-03-01T05:46:16.231Z,13.30
2023-03-01T05:48:44.588Z,13.17
2023-03-01T05:51:12.995Z,15.50
2023-03-01T05:53:41.034Z,12.70
2023-03-01T05:56:09.214Z,12.93
2023-03-01T05:58:39.506Z,12.00
2023-03-01T06:01:07.314Z,13.60
2023-03-01T06:03:36.343Z,13.90
2023-03-01T06:06:04.142Z,11.47
2023-03-01T06:08:31.837Z,12.00
2023-03-01T06:10:59.534Z,13.23
2023-03-01T06:13:27.301Z,11.80
2023-03-01T06:15:55.073Z,12.80
2023-03-01T06:18:23.482Z,14.33
2023-03-01T06:20:56.670Z,12.60
2023-03-01T06:23:24.378Z,10.37
2023-03-01T06:25:54.229Z,10.03
2023-03-01T06:28:22.023Z,12.07
2023-03-01T06:30:50.111Z,15.23
2023-03-01T06:33:19.104Z,15.00
2023-03-01T06:35:46.855Z,12.30
2023-03-01T06:38:18.270Z,15.03
2023-03-01T06:40:46.381Z,14.07
2023-03-01T06:43:14.053Z,14.50
2023-03-01T06:45:42.746Z,11.80
2023-03-01T06:48:10.487Z,13.57
2023-03-01T06:50:41.421Z,10.03
2023-03-01T06:53:09.364Z,12.87
2023-03-01T06:55:38.395Z,17.37
2023-03-01T06:58:06.144Z,13.93
2023-03-01T07:00:34.677Z,11.17
2023-03-01T07:03:03.791Z,11.60
2023-03-01T07:05:32.199Z,18.23
2023-03-01T07:07:59.944Z,11.00
2023-03-01T07:10:27.802Z,13.37
2023-03-01T07:12:58.560Z,11.93
2023-03-01T07:15:26.909Z,12.83
2023-03-01T07:17:54.654Z,16.03
2023-03-01T07:20:25.437Z,20.43
2023-03-01T07:22:53.409Z,11.50
2023-03-01T07:25:21.232Z,16.07
2023-03-01T07:27:52.182Z,14.23
2023-03-01T07:30:22.544Z,13.37
2023-03-01T07:32:50.649Z,12.87
2023-03-01T07:35:19.763Z,14.40
2023-03-01T07:37:47.472Z,14.33
2023-03-01T07:40:15.238Z,14.37
2023-03-01T07:42:42.960Z,14.13
2023-03-01T07:45:11.724Z,16.40
2023-03-01T07:47:40.788Z,19.10
2023-03-01T07:50:09.691Z,16.93
2023-03-01T07:52:37.408Z,14.43
2023-03-01T07:55:05.540Z,11.20
2023-03-01T07:57:33.236Z,14.80
2023-03-01T08:00:00.956Z,13.97
2023-03-01T08:02:28.688Z,14.60
2023-03-01T08:04:57.729Z,15.10
2023-03-01T08:07:25.497Z,15.70
2023-03-01T08:09:53.186Z,15.00
2023-03-01T08:12:20.886Z,15.87
2023-03-01T08:14:48.594Z,18.80
2023-03-01T08:17:16.605Z,15.50
2023-03-01T08:19:45.543Z,23.33
2023-03-01T08:22:14.736Z,21.60
2023-03-01T08:24:42.541Z,20.00
2023-03-01T08:27:10.954Z,22.20
2023-03-01T08:29:38.685Z,22.70
2023-03-01T08:32:06.793Z,21.13
2023-03-01T08:34:36.445Z,27.00
2023-03-01T08:37:04.469Z,20.07
2023-03-01T08:39:33.653Z,24.67
2023-03-01T08:42:01.394Z,22.80
2023-03-01T08:44:29.201Z,24.63
2023-03-01T08:46:56.979Z,23.30
2023-03-01T08:49:25.514Z,18.77
2023-03-01T08:51:53.350Z,19.93
2023-03-01T08:54:22.719Z,16.50
2023-03-01T08:56:52.091Z,15.40
2023-03-01T08:59:20.373Z,18.17
2023-03-01T09:01:48.537Z,17.73
2023-03-01T09:04:17.147Z,15.53
2023-03-01T09:06:45.169Z,15.10
2023-03-01T09:09:17.024Z,18.33
2023-03-01T09:11:46.897Z,14.87
2023-03-01T09:14:16.481Z,14.80
2023-03-01T09:16:44.826Z,16.37
2023-03-01T09:19:13.106Z,21.27
2023-03-01T09:21:41.421Z,18.60
2023-03-01T09:24:15.023Z,16.93
2023-03-01T09:26:42.842Z,17.27
2023-03-01T09:29:11.435Z,16.90
2023-03-01T09:31:40.605Z,17.70
2023-03-01T09:34:08.888Z,20.40
2023-03-01T09:36:36.985Z,15.30
2023-03-01T09:39:06.773Z,15.00
2023-03-01T09:41:48.088Z,14.03
2023-03-01T09:44:27.880Z,17.37
2023-03-01T09:46:58.969Z,22.73
2023-03-01T09:49:29.270Z,20.37
2023-03-01T09:52:01.578Z,12.43
2023-03-01T09:54:29.516Z,13.33
2023-03-01T09:57:13.505Z,11.60
2023-03-01T10:00:01.685Z,12.37
2023-03-01T10:02:40.159Z,13.20
2023-03-01T10:05:20.910Z,12.20
2023-03-01T10:08:00.722Z,12.50
2023-03-01T10:10:31.550Z,11.10
2023-03-01T10:13:01.861Z,11.97
2023-03-01T10:15:38.015Z,12.50
2023-03-01T10:18:11.952Z,11.47
2023-03-01T10:20:48.632Z,18.53
2023-03-01T10:23:16.388Z,13.07
2023-03-01T10:25:55.029Z,13.60
2023-03-01T10:28:29.062Z,14.20
2023-03-01T10:30:58.733Z,12.10
2023-03-01T10:33:31.174Z,15.10
2023-03-01T10:35:59.082Z,16.10
2023-03-01T10:38:27.027Z,14.20
2023-03-01T10:40:58.934Z,11.47
2023-03-01T10:43:28.373Z,12.03
2023-03-01T10:45:56.202Z,12.13
2023-03-01T10:48:27.155Z,13.50
2023-03-01T10:51:08.340Z,12.80
2023-03-01T10:53:39.150Z,13.50
2023-03-01T10:56:09.378Z,16.57
2023-03-01T10:58:38.870Z,12.80
2023-03-01T11:01:25.542Z,11.97
2023-03-01T11:04:12.515Z,12.77
2023-03-01T11:06:43.322Z,13.70
2023-03-01T11:09:19.977Z,10.53
2023-03-01T11:11:48.319Z,10.83
2023-03-01T11:14:27.501Z,12.33
2023-03-01T11:17:03.352Z,13.73
2023-03-01T11:19:31.348Z,13.27
2023-03-01T11:22:05.005Z,10.87
2023-03-01T11:24:38.930Z,10.67
2023-03-01T11:27:14.380Z,13.90
2023-03-01T11:29:49.124Z,12.17
2023-03-01T11:32:17.675Z,13.47
2023-03-01T11:34:50.992Z,11.50
2023-03-01T11:37:35.661Z,12.77
2023-03-01T11:40:13.350Z,13.20
2023-03-01T11:42:50.436Z,14.37
2023-03-01T11:45:18.208Z,14.40
2023-03-01T11:47:57.764Z,11.37
2023-03-01T11:50:34.689Z,11.90
2023-03-01T11:53:31.349Z,10.97
2023-03-01T11:56:11.020Z,10.30
2023-03-01T11:58:50.201Z,12.30
2023-03-01T12:01:31.858Z,14.53
2023-03-01T12:04:28.743Z,11.20
2023-03-01T12:06:59.645Z,10.50
2023-03-01T12:09:46.163Z,11.70
2023-03-01T12:12:38.686Z,11.67
2023-03-01T12:15:35.184Z,13.60
2023-03-01T12:18:22.186Z,11.03
2023-03-01T12:21:00.700Z,14.10
2023-03-01T12:23:52.194Z,11.97
2023-03-01T12:26:29.540Z,11.87
2023-03-01T12:29:17.290Z,10.70
2023-03-01T12:32:07.225Z,11.77
2023-03-01T12:34:55.746Z,9.63
2023-03-01T12:37:34.148Z,11.10
2023-03-01T12:40:23.965Z,11.13
2023-03-01T12:43:04.623Z,10.83
2023-03-01T12:45:45.226Z,11.30
2023-03-01T12:48:36.902Z,10.60
2023-03-01T12:51:09.393Z,10.03
2023-03-01T12:53:40.964Z,10.50
2023-03-01T12:56:12.881Z,10.10
2023-03-01T12:58:57.509Z,10.17
2023-03-01T13:01:39.267Z,13.17
2023-03-01T13:04:25.785Z,11.57
2023-03-01T13:07:06.387Z,12.37
2023-03-01T13:09:44.453Z,9.57
2023-03-01T13:12:47.683Z,13.00
2023-03-01T13:15:35.637Z,12.20
2023-03-01T13:18:05.969Z,11.77
2023-03-01T13:20:46.643Z,10.80
2023-03-01T13:23:26.765Z,10.50
2023-03-01T13:26:07.506Z,14.63
2023-03-01T13:28:49.011Z,10.47
2023-03-01T13:31:59.575Z,14.60
2023-03-01T13:34:48.958Z,14.00
2023-03-01T13:37:35.607Z,12.20
2023-03-01T13:40:20.506Z,10.90
2023-03-01T13:42:59.373Z,12.80
2023-03-01T13:45:40.022Z,12.20
2023-03-01T13:48:12.856Z,10.93
2023-03-01T13:50:51.166Z,11.13
2023-03-01T13:53:21.559Z,10.43
2023-03-01T13:55:52.990Z,11.53
2023-03-01T13:58:27.157Z,17.07
2023-03-01T14:01:00.362Z,12.27
2023-03-01T14:03:29.539Z,11.97
2023-03-01T14:06:14.677Z,10.10
2023-03-01T14:08:47.174Z,12.70
2023-03-01T14:11:54.617Z,11.67
2023-03-01T14:14:49.624Z,10.93
2023-03-01T14:17:35.724Z,11.93
2023-03-01T14:20:11.196Z,11.20
2023-03-01T14:22:44.116Z,13.33
2023-03-01T14:25:27.258Z,11.20
2023-03-01T14:28:05.777Z,13.37
2023-03-01T14:30:38.321Z,10.10
2023-03-01T14:33:08.446Z,10.33
2023-03-01T14:35:38.133Z,12.70
2023-03-01T14:38:07.310Z,12.97
2023-03-01T14:40:37.647Z,9.40
2023-03-01T14:43:13.211Z,10.23
2023-03-01T14:45:41.216Z,12.30
2023-03-01T14:48:09.837Z,14.60
2023-03-01T14:50:43.190Z,9.50
2023-03-01T14:53:20.249Z,11.70
2023-03-01T14:55:50.469Z,11.00
2023-03-01T14:58:22.218Z,12.10
2023-03-01T15:00:52.955Z,12.63
2023-03-01T15:03:27.562Z,14.85
2023-03-01T15:05:55.840Z,12.93
2023-03-01T15:08:27.493Z,11.23
2023-03-01T15:11:03.390Z,10.63
2023-03-01T15:13:34.080Z,10.07
2023-03-01T15:16:21.481Z,10.23
2023-03-01T15:18:51.039Z,11.17
2023-03-01T15:21:23.895Z,12.00
2023-03-01T15:23:54.942Z,11.10
2023-03-01T15:26:32.822Z,10.73
2023-03-01T15:29:02.220Z,12.53
2023-03-01T15:31:36.030Z,9.63
2023-03-01T15:34:11.978Z,13.83
2023-03-01T15:36:44.778Z,11.30
2023-03-01T15:39:39.099Z,11.00
2023-03-01T15:42:09.647Z,11.70
2023-03-01T15:44:43.869Z,12.90
2023-03-01T15:47:29.339Z,9.03
2023-03-01T15:50:02.478Z,11.10
2023-03-01T15:52:36.000Z,12.30
2023-03-01T15:55:08.171Z,9.87
2023-03-01T15:57:36.011Z,11.97
2023-03-01T16:00:12.129Z,9.37
2023-03-01T16:02:40.255Z,10.23
2023-03-01T16:05:15.585Z,11.70
2023-03-01T16:07:43.509Z,14.10
2023-03-01T16:10:13.439Z,14.07
2023-03-01T16:12:41.171Z,14.10
2023-03-01T16:15:18.366Z,16.97
2023-03-01T16:17:47.204Z,10.70
2023-03-01T16:20:27.349Z,14.23
2023-03-01T16:22:56.390Z,10.70
2023-03-01T16:25:25.494Z,10.10
2023-03-01T16:27:53.708Z,10.47
2023-03-01T16:30:23.458Z,10.53
2023-03-01T16:32:52.216Z,14.57
2023-03-01T16:35:22.469Z,10.20
2023-03-01T16:37:50.740Z,13.10
2023-03-01T16:40:21.748Z,9.60
2023-03-01T16:42:51.790Z,10.17
2023-03-01T16:45:24.648Z,11.93
2023-03-01T16:47:55.648Z,10.97
2023-03-01T16:50:23.879Z,11.57
2023-03-01T16:52:51.631Z,12.70
2023-03-01T16:55:19.533Z,14.33
2023-03-01T16:57:47.297Z,12.23
2023-03-01T17:00:18.719Z,11.00
2023-03-01T17:02:46.455Z,11.73
2023-03-01T17:05:14.474Z,9.90
2023-03-01T17:07:43.278Z,10.50
2023-03-01T17:10:12.333Z,12.07
2023-03-01T17:12:40.172Z,10.23
2023-03-01T17:15:08.830Z,13.67
2023-03-01T17:17:37.856Z,11.27
2023-03-01T17:20:06.391Z,11.47
2023-03-01T17:22:34.129Z,11.20
2023-03-01T17:25:01.933Z,15.27
2023-03-01T17:27:29.686Z,14.30
2023-03-01T17:29:57.543Z,13.23
2023-03-01T17:32:25.426Z,12.07
2023-03-01T17:34:54.553Z,14.17
2023-03-01T17:37:22.652Z,14.60
2023-03-01T17:39:50.492Z,13.13
2023-03-01T17:42:18.265Z,12.20
2023-03-01T17:44:46.136Z,13.20
2023-03-01T17:47:13.956Z,15.90
2023-03-01T17:49:41.674Z,15.40
2023-03-01T17:52:10.716Z,14.37
2023-03-01T17:54:38.488Z,16.00
2023-03-01T17:57:06.176Z,14.30
2023-03-01T17:59:37.058Z,24.50
2023-03-01T18:02:05.049Z,13.90
2023-03-01T18:04:33.298Z,10.90
2023-03-01T18:07:01.214Z,12.90
2023-03-01T18:09:30.518Z,17.53
2023-03-01T18:11:58.707Z,11.23
2023-03-01T18:14:29.729Z,14.13
2023-03-01T18:16:57.579Z,16.23
2023-03-01T18:19:25.354Z,12.00
2023-03-01T18:21:53.092Z,13.07
2023-03-01T18:24:20.902Z,12.97
2023-03-01T18:26:49.941Z,12.03
2023-03-01T18:29:17.712Z,12.80
2023-03-01T18:31:45.866Z,14.50
2023-03-01T18:34:13.766Z,12.90
2023-03-01T18:36:44.475Z,12.43
2023-03-01T18:39:17.767Z,17.33
2023-03-01T18:41:45.496Z,15.33
2023-03-01T18:44:14.647Z,13.43
2023-03-01T18:46:42.460Z,14.77
2023-03-01T18:49:11.552Z,17.03
2023-03-01T18:51:39.428Z,15.63
2023-03-01T18:54:07.722Z,13.97
2023-03-01T18:56:35.986Z,15.10
2023-03-01T18:59:04.012Z,15.60
2023-03-01T19:01:37.345Z,12.97
2023-03-01T19:04:06.352Z,16.00
2023-03-01T19:06:35.730Z,12.57
2023-03-01T19:09:04.190Z,13.60
2023-03-01T19:11:33.463Z,14.73
2023-03-01T19:14:02.104Z,15.13
2023-03-01T19:16:32.579Z,14.40
2023-03-01T19:19:03.974Z,13.40
2023-03-01T19:21:33.423Z,13.73
2023-03-01T19:24:03.864Z,14.60
2023-03-01T19:26:32.808Z,15.03
2023-03-01T19:29:01.282Z,19.03
2023-03-01T19:31:30.916Z,13.47
2023-03-01T19:34:10.390Z,12.80
2023-03-01T19:36:41.741Z,13.87
2023-03-01T19:39:11.131Z,14.33
2023-03-01T19:41:38.914Z,15.73
2023-03-01T19:44:08.553Z,16.57
2023-03-01T19:46:36.913Z,13.47
2023-03-01T19:49:05.238Z,15.00
2023-03-01T19:51:36.076Z,12.77
2023-03-01T19:54:06.492Z,12.90
2023-03-01T19:56:34.982Z,17.50
2023-03-01T19:59:04.387Z,18.43
2023-03-01T20:01:34.109Z,14.23
2023-03-01T20:04:02.307Z,14.57
2023-03-01T20:06:30.991Z,14.40
2023-03-01T20:09:02.329Z,14.87
2023-03-01T20:11:35.812Z,17.27
2023-03-01T20:14:06.578Z,14.00
2023-03-01T20:16:34.777Z,13.23
2023-03-01T20:19:03.228Z,14.73
2023-03-01T20:21:31.124Z,14.73
2023-03-01T20:23:58.856Z,14.27
2023-03-01T20:26:27.155Z,13.53
2023-03-01T20:28:57.832Z,12.97
2023-03-01T20:31:29.136Z,13.13
2023-03-01T20:33:58.155Z,17.53
2023-03-01T20:36:26.405Z,14.83
2023-03-01T20:38:54.308Z,13.40
2023-03-01T20:41:25.793Z,12.57
2023-03-01T20:43:56.734Z,13.10
2023-03-01T20:46:27.252Z,14.47
2023-03-01T20:48:55.039Z,11.97
2023-03-01T20:51:22.833Z,15.80
2023-03-01T20:53:50.679Z,12.80
2023-03-01T20:56:20.969Z,16.10
2023-03-01T20:58:49.047Z,12.67
2023-03-01T21:01:18.934Z,20.47
2023-03-01T21:03:48.346Z,13.50
2023-03-01T21:06:16.159Z,15.13
2023-03-01T21:08:44.265Z,11.83
2023-03-01T21:11:11.984Z,14.23
2023-03-01T21:13:41.620Z,14.53
2023-03-01T21:16:13.718Z,14.43
2023-03-01T21:18:42.099Z,14.20
2023-03-01T21:21:13.195Z,15.93
2023-03-01T21:23:43.078Z,21.17
2023-03-01T21:26:13.019Z,12.43
2023-03-01T21:28:41.977Z,15.93
2023-03-01T21:31:15.004Z,14.80
2023-03-01T21:33:46.225Z,15.37
2023-03-01T21:36:16.781Z,20.97
2023-03-01T21:38:47.148Z,15.73
2023-03-01T21:41:17.080Z,16.37
2023-03-01T21:43:46.521Z,16.90
2023-03-01T21:46:16.238Z,12.80
2023-03-01T21:48:45.759Z,16.90
2023-03-01T21:51:16.744Z,17.33
2023-03-01T21:53:44.834Z,14.83
2023-03-01T21:56:16.800Z,12.57
2023-03-01T21:58:44.704Z,16.73
2023-03-01T22:01:14.928Z,16.67
2023-03-01T22:03:45.955Z,16.97
2023-03-01T22:06:19.630Z,18.20
2023-03-01T22:08:48.656Z,13.80
2023-03-01T22:11:19.053Z,18.50
2023-03-01T22:13:47.533Z,20.23
2023-03-01T22:16:15.392Z,15.57
2023-03-01T22:18:43.176Z,14.37
2023-03-01T22:21:11.102Z,15.33
2023-03-01T22:23:41.175Z,18.13
2023-03-01T22:26:09.798Z,18.33
2023-03-01T22:28:38.049Z,16.93
2023-03-01T22:31:06.471Z,15.73
2023-03-01T22:33:37.054Z,15.60
2023-03-01T22:36:05.945Z,21.80
2023-03-01T22:38:33.693Z,15.27
2023-03-01T22:41:05.190Z,14.33
2023-03-01T22:43:33.940Z,17.83
2023-03-01T22:46:10.832Z,19.20
2023-03-01T22:48:38.872Z,15.63
2023-03-01T22:51:07.430Z,17.93
2023-03-01T22:53:38.140Z,18.23
2023-03-01T22:56:15.389Z,16.37
2023-03-01T22:58:43.266Z,18.70
2023-03-01T23:01:12.883Z,19.93
2023-03-01T23:03:41.003Z,15.13
2023-03-01T23:06:09.406Z,16.30
2023-03-01T23:08:37.661Z,16.47
2023-03-01T23:11:10.294Z,18.40
2023-03-01T23:13:39.899Z,16.50
2023-03-01T23:16:08.505Z,16.43
2023-03-01T23:18:36.750Z,16.13
2023-03-01T23:21:09.730Z,14.97
2023-03-01T23:23:37.464Z,18.27
2023-03-01T23:26:05.936Z,16.00
2023-03-01T23:28:33.998Z,16.70
2023-03-01T23:31:04.794Z,15.40
2023-03-01T23:33:37.684Z,19.70
2023-03-01T23:36:06.616Z,16.33
2023-03-01T23:38:34.626Z,17.80
2023-03-01T23:41:02.427Z,16.30
2023-03-01T23:43:30.369Z,15.10
2023-03-01T23:45:58.122Z,14.97
2023-03-01T23:48:27.264Z,19.70
2023-03-01T23:50:55.078Z,22.70
2023-03-01T23:53:23.093Z,17.47
2023-03-01T23:55:52.660Z,20.20
2023-03-01T23:58:28.231Z,23.33
